createdAt,value
2022-10-13T00:00:02.985Z,100.00
2022-10-13T00:02:44.383Z,100.00
2022-10-13T00:05:16.466Z,100.00
2022-10-13T00:07:54.055Z,100.00
2022-10-13T00:10:27.404Z,100.00
2022-10-13T00:12:59.594Z,100.00
2022-10-13T00:15:31.545Z,100.00
2022-10-13T00:18:03.614Z,100.00
2022-10-13T00:20:35.828Z,100.00
2022-10-13T00:23:08.977Z,100.00
2022-10-13T00:25:45.052Z,100.00
2022-10-13T00:28:18.658Z,100.00
2022-10-13T00:30:50.744Z,100.00
2022-10-13T00:33:22.944Z,100.00
2022-10-13T00:35:54.925Z,100.00
2022-10-13T00:38:30.164Z,100.00
2022-10-13T00:41:02.532Z,100.00
2022-10-13T00:43:55.465Z,100.00
2022-10-13T00:46:29.714Z,100.00
2022-10-13T00:49:06.383Z,100.00
2022-10-13T00:52:00.974Z,100.00
2022-10-13T00:54:34.051Z,100.00
2022-10-13T00:57:07.276Z,100.00
2022-10-13T00:59:42.717Z,100.00
2022-10-13T01:02:14.916Z,100.00
2022-10-13T01:04:51.869Z,100.00
2022-10-13T01:07:23.865Z,100.00
2022-10-13T01:09:56.314Z,100.00
2022-10-13T01:12:43.704Z,100.00
2022-10-13T01:15:24.287Z,100.00
2022-10-13T01:18:05.651Z,100.00
2022-10-13T01:21:08.336Z,100.00
2022-10-13T01:24:16.065Z,100.00
2022-10-13T01:27:17.247Z,100.00
2022-10-13T01:30:10.247Z,100.00
2022-10-13T01:33:08.173Z,100.00
2022-10-13T01:35:58.355Z,100.00
2022-10-13T01:38:40.804Z,100.00
2022-10-13T01:41:20.725Z,100.00
2022-10-13T01:43:59.594Z,100.00
2022-10-13T01:46:35.745Z,100.00
2022-10-13T01:49:10.993Z,100.00
2022-10-13T01:51:44.216Z,100.00
2022-10-13T01:54:18.733Z,100.00
2022-10-13T01:56:58.446Z,100.00
2022-10-13T01:59:38.906Z,100.00
2022-10-13T02:02:19.328Z,100.00
2022-10-13T02:05:03.505Z,100.00
2022-10-13T02:07:43.884Z,100.00
2022-10-13T02:10:21.885Z,100.00
2022-10-13T02:12:58.325Z,100.00
2022-10-13T02:15:35.696Z,100.00
2022-10-13T02:18:14.086Z,100.00
2022-10-13T02:20:46.809Z,100.00
2022-10-13T02:23:23.265Z,100.00
2022-10-13T02:26:03.623Z,100.00
2022-10-13T02:28:39.929Z,100.00
2022-10-13T02:31:13.226Z,100.00
2022-10-13T02:33:45.464Z,100.00
2022-10-13T02:36:17.920Z,100.00
2022-10-13T02:38:53.844Z,100.00
2022-10-13T02:41:27.186Z,100.00
2022-10-13T02:43:59.493Z,100.00
2022-10-13T02:46:38.585Z,100.00
2022-10-13T02:49:11.089Z,100.00
2022-10-13T02:51:43.185Z,100.00
2022-10-13T02:54:15.115Z,100.00
2022-10-13T02:56:47.313Z,100.00
2022-10-13T02:59:24.705Z,100.00
2022-10-13T03:01:57.248Z,100.00
2022-10-13T03:04:30.936Z,100.00
2022-10-13T03:07:04.553Z,100.00
2022-10-13T03:09:39.444Z,100.00
2022-10-13T03:12:12.254Z,100.00
2022-10-13T03:14:44.225Z,100.00
2022-10-13T03:17:16.430Z,100.00
2022-10-13T03:19:51.160Z,100.00
2022-10-13T03:22:23.653Z,100.00
2022-10-13T03:24:57.243Z,100.00
2022-10-13T03:27:29.848Z,100.00
2022-10-13T03:30:02.067Z,100.00
2022-10-13T03:32:37.765Z,100.00
2022-10-13T03:35:10.744Z,100.00
2022-10-13T03:37:41.867Z,100.00
2022-10-13T03:40:14.953Z,100.00
2022-10-13T03:42:47.444Z,100.00
2022-10-13T03:45:20.063Z,100.00
2022-10-13T03:47:52.287Z,100.00
2022-10-13T03:50:24.385Z,100.00
2022-10-13T03:52:58.244Z,100.00
2022-10-13T03:55:32.426Z,100.00
2022-10-13T03:58:04.594Z,100.00
2022-10-13T04:00:40.652Z,100.00
2022-10-13T04:03:12.636Z,100.00
2022-10-13T04:05:44.714Z,100.00
2022-10-13T04:08:17.576Z,100.00
2022-10-13T04:10:53.116Z,100.00
2022-10-13T04:13:25.704Z,100.00
2022-10-13T04:15:57.817Z,100.00
2022-10-13T04:18:31.924Z,100.00
2022-10-13T04:21:08.575Z,100.00
2022-10-13T04:23:40.892Z,100.00
2022-10-13T04:26:22.164Z,100.00
2022-10-13T04:28:56.083Z,100.00
2022-10-13T04:31:32.049Z,100.00
2022-10-13T04:34:04.018Z,100.00
2022-10-13T04:36:35.990Z,100.00
2022-10-13T04:39:08.269Z,100.00
2022-10-13T04:41:40.566Z,100.00
2022-10-13T04:44:13.134Z,100.00
2022-10-13T04:46:48.164Z,100.00
2022-10-13T04:49:21.714Z,100.00
2022-10-13T04:52:01.164Z,100.00
2022-10-13T04:54:34.956Z,100.00
2022-10-13T04:57:09.020Z,100.00
2022-10-13T04:59:43.501Z,100.00
2022-10-13T05:02:17.968Z,100.00
2022-10-13T05:04:52.067Z,100.00
2022-10-13T05:07:25.092Z,100.00
2022-10-13T05:09:58.973Z,100.00
2022-10-13T05:12:33.213Z,100.00
2022-10-13T05:15:08.613Z,100.00
2022-10-13T05:17:44.593Z,100.00
2022-10-13T05:20:19.100Z,100.00
2022-10-13T05:22:54.611Z,100.00
2022-10-13T05:25:33.721Z,100.00
2022-10-13T05:28:08.368Z,100.00
2022-10-13T05:30:41.600Z,100.00
2022-10-13T05:33:14.776Z,100.00
2022-10-13T05:35:54.847Z,100.00
2022-10-13T05:38:28.473Z,100.00
2022-10-13T05:41:08.264Z,100.00
2022-10-13T05:43:42.637Z,100.00
2022-10-13T05:46:16.373Z,100.00
2022-10-13T05:48:50.214Z,100.00
2022-10-13T05:51:27.965Z,100.00
2022-10-13T05:54:06.295Z,100.00
2022-10-13T05:56:45.113Z,100.00
2022-10-13T05:59:26.069Z,100.00
2022-10-13T06:02:04.925Z,100.00
2022-10-13T06:04:41.123Z,100.00
2022-10-13T06:07:16.928Z,100.00
2022-10-13T06:09:51.082Z,100.00
2022-10-13T06:12:24.574Z,100.00
2022-10-13T06:14:58.715Z,100.00
2022-10-13T06:17:32.711Z,100.00
2022-10-13T06:20:07.641Z,100.00
2022-10-13T06:22:53.015Z,100.00
2022-10-13T06:25:27.672Z,100.00
2022-10-13T06:28:04.460Z,100.00
2022-10-13T06:31:02.539Z,100.00
2022-10-13T06:34:11.843Z,100.00
2022-10-13T06:36:50.770Z,100.00
2022-10-13T06:39:27.546Z,100.00
2022-10-13T06:42:01.349Z,100.00
2022-10-13T06:44:36.764Z,100.00
2022-10-13T06:47:10.697Z,100.00
2022-10-13T06:49:44.757Z,100.00
2022-10-13T06:52:19.622Z,100.00
2022-10-13T06:54:54.590Z,100.00
2022-10-13T06:57:33.108Z,100.00
2022-10-13T07:00:14.433Z,100.00
2022-10-13T07:02:51.626Z,100.00
2022-10-13T07:05:26.125Z,100.00
2022-10-13T07:08:01.136Z,100.00
2022-10-13T07:10:37.087Z,100.00
2022-10-13T07:13:13.958Z,100.00
2022-10-13T07:15:48.221Z,100.00
2022-10-13T07:18:22.101Z,100.00
2022-10-13T07:20:55.994Z,100.00
2022-10-13T07:23:30.806Z,100.00
2022-10-13T07:26:11.371Z,100.00
2022-10-13T07:28:46.185Z,100.00
2022-10-13T07:31:24.228Z,100.00
2022-10-13T07:34:00.999Z,100.00
2022-10-13T07:36:36.084Z,100.00
2022-10-13T07:39:10.741Z,100.00
2022-10-13T07:41:50.175Z,100.00
2022-10-13T07:44:25.428Z,100.00
2022-10-13T07:46:59.076Z,100.00
2022-10-13T07:49:32.482Z,100.00
2022-10-13T07:52:08.679Z,100.00
2022-10-13T07:54:44.559Z,100.00
2022-10-13T07:57:18.950Z,100.00
2022-10-13T07:59:53.191Z,100.00
2022-10-13T08:02:27.392Z,100.00
2022-10-13T08:05:04.502Z,100.00
2022-10-13T08:07:41.125Z,100.00
2022-10-13T08:10:16.086Z,100.00
2022-10-13T08:12:51.918Z,100.00
2022-10-13T08:15:26.885Z,100.00
2022-10-13T08:18:01.760Z,100.00
2022-10-13T08:20:46.295Z,100.00
2022-10-13T08:23:20.600Z,100.00
2022-10-13T08:25:58.263Z,100.00
2022-10-13T08:28:34.224Z,100.00
2022-10-13T08:31:09.365Z,100.00
2022-10-13T08:33:44.254Z,100.00
2022-10-13T08:36:20.253Z,100.00
2022-10-13T08:38:55.277Z,100.00
2022-10-13T08:41:34.265Z,100.00
2022-10-13T08:47:16.410Z,100.00
2022-10-13T08:49:59.145Z,100.00
2022-10-13T08:52:49.594Z,100.00
2022-10-13T08:55:32.737Z,100.00
2022-10-13T08:58:21.178Z,100.00
2022-10-13T09:01:12.146Z,100.00
2022-10-13T09:03:52.632Z,100.00
2022-10-13T09:06:30.453Z,100.00
2022-10-13T09:09:06.555Z,100.00
2022-10-13T09:11:41.422Z,100.00
2022-10-13T09:14:22.788Z,100.00
2022-10-13T09:20:05.264Z,100.00
2022-10-13T09:22:41.251Z,100.00
2022-10-13T09:25:23.023Z,100.00
2022-10-13T09:28:03.253Z,100.00
2022-10-13T09:30:39.660Z,100.00
2022-10-13T09:33:30.045Z,100.00
2022-10-13T09:36:18.707Z,100.00
2022-10-13T09:39:13.449Z,100.00
2022-10-13T09:41:48.035Z,100.00
2022-10-13T09:44:33.671Z,100.00
2022-10-13T09:47:19.657Z,100.00
2022-10-13T09:50:07.443Z,100.00
2022-10-13T09:52:41.775Z,100.00
2022-10-13T09:55:33.776Z,100.00
2022-10-13T09:58:18.108Z,100.00
2022-10-13T10:00:55.048Z,100.00
2022-10-13T10:03:35.119Z,100.00
2022-10-13T10:06:14.940Z,100.00
2022-10-13T10:09:03.338Z,100.00
2022-10-13T10:11:42.965Z,100.00
2022-10-13T10:14:26.634Z,100.00
2022-10-13T10:17:09.735Z,100.00
2022-10-13T10:19:56.189Z,100.00
2022-10-13T10:22:42.367Z,100.00
2022-10-13T10:25:33.974Z,100.00
2022-10-13T10:28:49.445Z,100.00
2022-10-13T10:31:35.275Z,100.00
2022-10-13T10:34:37.540Z,100.00
2022-10-13T10:37:52.826Z,100.00
2022-10-13T10:40:37.215Z,100.00
2022-10-13T10:43:34.602Z,100.00
2022-10-13T10:46:15.293Z,100.00
2022-10-13T10:48:51.047Z,100.00
2022-10-13T10:51:35.254Z,100.00
2022-10-13T10:54:26.432Z,100.00
2022-10-13T10:57:11.374Z,100.00
2022-10-13T10:59:58.579Z,100.00
2022-10-13T11:02:53.315Z,100.00
2022-10-13T11:05:28.094Z,100.00
2022-10-13T11:08:05.144Z,100.00
2022-10-13T11:10:39.980Z,100.00
2022-10-13T11:13:29.891Z,100.00
2022-10-13T11:16:31.246Z,100.00
2022-10-13T11:19:08.634Z,100.00
2022-10-13T11:22:18.523Z,100.00
2022-10-13T11:25:26.387Z,100.00
2022-10-13T11:28:00.731Z,100.00
2022-10-13T11:31:00.536Z,100.00
2022-10-13T11:34:00.700Z,100.00
2022-10-13T11:36:48.668Z,100.00
2022-10-13T11:40:04.834Z,100.00
2022-10-13T11:43:02.700Z,100.00
2022-10-13T11:46:10.389Z,100.00
2022-10-13T11:49:14.181Z,100.00
2022-10-13T11:52:06.754Z,100.00
2022-10-13T11:54:47.761Z,100.00
2022-10-13T11:57:26.341Z,100.00
2022-10-13T12:00:01.647Z,100.00
2022-10-13T12:02:57.163Z,100.00
2022-10-13T12:05:33.365Z,100.00
2022-10-13T12:08:08.091Z,100.00
2022-10-13T12:10:41.914Z,100.00
2022-10-13T12:13:26.693Z,100.00
2022-10-13T12:16:11.697Z,100.00
2022-10-13T12:18:49.867Z,99.36
2022-10-13T12:21:25.520Z,99.74
2022-10-13T12:24:12.020Z,100.00
2022-10-13T12:26:46.175Z,100.00
2022-10-13T12:29:20.537Z,100.00
2022-10-13T12:31:58.801Z,100.00
2022-10-13T12:34:37.633Z,100.00
2022-10-13T12:37:26.565Z,100.00
2022-10-13T12:40:01.710Z,98.13
2022-10-13T12:42:38.517Z,99.87
2022-10-13T12:45:20.957Z,97.91
2022-10-13T12:47:59.025Z,97.27
2022-10-13T12:50:55.730Z,97.98
2022-10-13T12:53:31.188Z,97.13
2022-10-13T12:56:20.582Z,97.49
2022-10-13T12:58:54.696Z,97.63
2022-10-13T13:01:37.080Z,97.99
2022-10-13T13:04:40.966Z,96.69
2022-10-13T13:07:41.654Z,96.94
2022-10-13T13:10:23.809Z,96.39
2022-10-13T13:13:14.477Z,97.74
2022-10-13T13:15:48.279Z,94.67
2022-10-13T13:18:45.492Z,94.79
2022-10-13T13:21:23.719Z,95.27
2022-10-13T13:24:16.213Z,92.95
2022-10-13T13:27:02.760Z,94.69
2022-10-13T13:29:36.347Z,94.44
2022-10-13T13:32:08.672Z,94.65
2022-10-13T13:34:43.616Z,94.04
2022-10-13T13:37:32.319Z,93.48
2022-10-13T13:40:07.043Z,93.54
2022-10-13T13:42:41.398Z,92.40
2022-10-13T13:45:16.674Z,93.71
2022-10-13T13:47:51.537Z,95.58
2022-10-13T13:50:28.276Z,94.48
2022-10-13T13:53:05.143Z,94.48
2022-10-13T13:55:39.737Z,95.72
2022-10-13T13:58:16.888Z,95.66
2022-10-13T14:00:51.226Z,95.59
2022-10-13T14:03:25.124Z,95.52
2022-10-13T14:06:01.173Z,94.64
2022-10-13T14:08:42.784Z,95.01
2022-10-13T14:11:18.095Z,95.73
2022-10-13T14:13:54.493Z,95.39
2022-10-13T14:16:34.859Z,96.89
2022-10-13T14:19:15.916Z,96.44
2022-10-13T14:21:52.241Z,95.52
2022-10-13T14:24:26.332Z,95.72
2022-10-13T14:27:01.784Z,95.19
2022-10-13T14:29:35.711Z,94.32
2022-10-13T14:32:10.026Z,95.33
2022-10-13T14:34:44.017Z,95.19
2022-10-13T14:37:22.132Z,95.35
2022-10-13T14:39:56.811Z,96.38
2022-10-13T14:42:31.341Z,96.43
2022-10-13T14:45:10.130Z,97.41
2022-10-13T14:47:45.217Z,98.43
2022-10-13T14:50:19.149Z,99.63
2022-10-13T14:52:54.326Z,99.63
2022-10-13T14:55:30.813Z,100.00
2022-10-13T14:58:08.093Z,100.00
2022-10-13T15:00:44.780Z,100.00
2022-10-13T15:03:21.734Z,100.00
2022-10-13T15:05:56.007Z,100.00
2022-10-13T15:08:31.250Z,100.00
2022-10-13T15:11:05.973Z,100.00
2022-10-13T15:13:39.539Z,100.00
2022-10-13T15:16:18.724Z,100.00
2022-10-13T15:18:53.158Z,100.00
2022-10-13T15:21:27.527Z,100.00
2022-10-13T15:24:02.417Z,100.00
2022-10-13T15:26:37.690Z,100.00
2022-10-13T15:29:11.558Z,100.00
2022-10-13T15:31:45.529Z,100.00
2022-10-13T15:34:22.432Z,100.00
2022-10-13T15:36:57.596Z,100.00
2022-10-13T15:39:34.528Z,100.00
2022-10-13T15:42:09.320Z,100.00
2022-10-13T15:45:12.256Z,100.00
2022-10-13T15:47:39.668Z,100.00
2022-10-13T15:50:16.851Z,100.00
2022-10-13T15:52:52.410Z,100.00
2022-10-13T15:55:30.792Z,100.00
2022-10-13T15:58:07.795Z,100.00
2022-10-13T16:00:45.686Z,100.00
2022-10-13T16:03:20.627Z,100.00
2022-10-13T16:05:59.050Z,100.00
2022-10-13T16:08:38.077Z,100.00
2022-10-13T16:11:20.838Z,100.00
2022-10-13T16:13:55.877Z,100.00
2022-10-13T16:16:30.475Z,100.00
2022-10-13T16:19:04.435Z,100.00
2022-10-13T16:21:39.168Z,100.00
2022-10-13T16:24:14.560Z,100.00
2022-10-13T16:26:49.910Z,100.00
2022-10-13T16:29:23.800Z,100.00
2022-10-13T16:32:01.206Z,100.00
2022-10-13T16:34:35.356Z,100.00
2022-10-13T16:37:10.054Z,100.00
2022-10-13T16:39:49.014Z,100.00
2022-10-13T16:42:30.063Z,100.00
2022-10-13T16:45:59.138Z,100.00
2022-10-13T16:48:35.246Z,100.00
2022-10-13T16:51:16.622Z,100.00
2022-10-13T16:53:59.847Z,100.00
2022-10-13T16:56:40.258Z,100.00
2022-10-13T16:59:18.039Z,100.00
2022-10-13T17:01:52.508Z,100.00
2022-10-13T17:04:29.803Z,100.00
2022-10-13T17:07:03.395Z,100.00
2022-10-13T17:09:36.172Z,100.00
2022-10-13T17:12:11.270Z,100.00
2022-10-13T17:14:48.693Z,100.00
2022-10-13T17:17:23.480Z,100.00
2022-10-13T17:19:57.745Z,100.00
2022-10-13T17:22:32.186Z,100.00
2022-10-13T17:25:06.054Z,100.00
2022-10-13T17:27:43.850Z,100.00
2022-10-13T17:30:18.491Z,100.00
2022-10-13T17:32:54.412Z,100.00
2022-10-13T17:35:28.407Z,100.00
2022-10-13T17:38:04.592Z,100.00
2022-10-13T17:40:40.499Z,100.00
2022-10-13T17:43:14.934Z,100.00
2022-10-13T17:45:48.766Z,100.00
2022-10-13T17:48:24.360Z,100.00
2022-10-13T17:51:03.897Z,100.00
2022-10-13T17:53:39.066Z,100.00
2022-10-13T17:56:18.950Z,100.00
2022-10-13T17:58:54.140Z,100.00
2022-10-13T18:01:30.053Z,100.00
2022-10-13T18:04:06.869Z,100.00
2022-10-13T18:06:44.435Z,100.00
2022-10-13T18:09:24.219Z,100.00
2022-10-13T18:11:59.382Z,100.00
2022-10-13T18:14:35.983Z,100.00
2022-10-13T18:17:10.045Z,100.00
2022-10-13T18:19:44.763Z,100.00
2022-10-13T18:22:18.690Z,100.00
2022-10-13T18:24:57.082Z,100.00
2022-10-13T18:27:31.251Z,100.00
2022-10-13T18:30:05.571Z,100.00
2022-10-13T18:32:39.989Z,100.00
2022-10-13T18:35:16.777Z,100.00
2022-10-13T18:37:54.225Z,100.00
2022-10-13T18:40:29.766Z,100.00
2022-10-13T18:43:03.788Z,100.00
2022-10-13T18:45:42.193Z,100.00
2022-10-13T18:48:15.991Z,100.00
2022-10-13T18:50:49.672Z,100.00
2022-10-13T18:53:23.029Z,100.00
2022-10-13T18:56:02.176Z,100.00
2022-10-13T18:58:36.711Z,100.00
2022-10-13T19:01:12.108Z,100.00
2022-10-13T19:04:03.035Z,100.00
2022-10-13T19:06:43.513Z,100.00
2022-10-13T19:09:20.578Z,100.00
2022-10-13T19:12:01.572Z,100.00
2022-10-13T19:14:38.006Z,100.00
2022-10-13T19:17:20.079Z,100.00
2022-10-13T19:20:00.207Z,100.00
2022-10-13T19:22:37.201Z,100.00
2022-10-13T19:25:12.489Z,100.00
2022-10-13T19:27:47.241Z,100.00
2022-10-13T19:30:24.524Z,100.00
2022-10-13T19:33:00.981Z,100.00
2022-10-13T19:35:41.292Z,100.00
2022-10-13T19:38:16.010Z,100.00
2022-10-13T19:40:52.184Z,100.00
2022-10-13T19:43:33.107Z,100.00
2022-10-13T19:46:11.932Z,100.00
2022-10-13T19:48:49.049Z,100.00
2022-10-13T19:51:23.018Z,100.00
2022-10-13T19:53:58.870Z,100.00
2022-10-13T19:56:34.953Z,100.00
2022-10-13T19:59:11.730Z,100.00
2022-10-13T20:01:45.745Z,100.00
2022-10-13T20:04:22.166Z,100.00
2022-10-13T20:06:58.848Z,100.00
2022-10-13T20:09:32.536Z,100.00
2022-10-13T20:12:04.183Z,100.00
2022-10-13T20:14:40.105Z,100.00
2022-10-13T20:17:13.929Z,100.00
2022-10-13T20:19:50.608Z,100.00
2022-10-13T20:22:26.818Z,100.00
2022-10-13T20:24:58.686Z,100.00
2022-10-13T20:27:35.941Z,100.00
2022-10-13T20:30:11.356Z,100.00
2022-10-13T20:32:45.389Z,100.00
2022-10-13T20:35:19.617Z,100.00
2022-10-13T20:37:53.200Z,100.00
2022-10-13T20:40:30.071Z,100.00
2022-10-13T20:43:03.781Z,100.00
2022-10-13T20:45:38.084Z,100.00
2022-10-13T20:48:12.911Z,100.00
2022-10-13T20:50:54.387Z,100.00
2022-10-13T20:53:28.627Z,100.00
2022-10-13T20:56:04.713Z,100.00
2022-10-13T20:58:39.434Z,100.00
2022-10-13T21:01:13.923Z,100.00
2022-10-13T21:03:48.611Z,100.00
2022-10-13T21:06:22.367Z,100.00
2022-10-13T21:08:58.124Z,100.00
2022-10-13T21:11:31.636Z,100.00
2022-10-13T21:14:07.631Z,100.00
2022-10-13T21:16:42.039Z,100.00
2022-10-13T21:19:15.823Z,100.00
2022-10-13T21:21:47.291Z,100.00
2022-10-13T21:24:20.831Z,100.00
2022-10-13T21:26:56.330Z,100.00
2022-10-13T21:29:31.970Z,100.00
2022-10-13T21:32:06.081Z,100.00
2022-10-13T21:34:37.677Z,100.00
2022-10-13T21:37:13.588Z,100.00
2022-10-13T21:39:49.098Z,100.00
2022-10-13T21:42:22.584Z,100.00
2022-10-13T21:44:56.025Z,100.00
2022-10-13T21:47:33.541Z,100.00
2022-10-13T21:50:10.482Z,100.00
2022-10-13T21:52:44.090Z,100.00
2022-10-13T21:55:18.094Z,100.00
2022-10-13T21:57:51.577Z,100.00
2022-10-13T22:00:26.966Z,100.00
2022-10-13T22:03:01.096Z,100.00
2022-10-13T22:05:41.742Z,100.00
2022-10-13T22:08:15.992Z,100.00
2022-10-13T22:10:49.417Z,100.00
2022-10-13T22:13:23.408Z,100.00
2022-10-13T22:16:01.476Z,100.00
2022-10-13T22:18:35.721Z,100.00
2022-10-13T22:21:14.042Z,100.00
2022-10-13T22:23:48.089Z,100.00
2022-10-13T22:26:22.203Z,100.00
2022-10-13T22:29:01.103Z,100.00
2022-10-13T22:31:35.028Z,100.00
2022-10-13T22:34:15.755Z,100.00
2022-10-13T22:36:49.552Z,100.00
2022-10-13T22:39:24.949Z,100.00
2022-10-13T22:42:01.509Z,100.00
2022-10-13T22:44:34.845Z,100.00
2022-10-13T22:47:08.603Z,100.00
2022-10-13T22:49:42.786Z,100.00
2022-10-13T22:52:16.612Z,100.00
2022-10-13T22:54:51.812Z,100.00
2022-10-13T22:57:26.234Z,100.00
2022-10-13T23:00:01.072Z,100.00
2022-10-13T23:02:34.895Z,100.00
2022-10-13T23:05:11.063Z,100.00
2022-10-13T23:07:45.687Z,100.00
2022-10-13T23:10:19.443Z,100.00
2022-10-13T23:12:53.037Z,100.00
2022-10-13T23:15:26.720Z,100.00
2022-10-13T23:17:58.135Z,100.00
2022-10-13T23:20:32.038Z,100.00
2022-10-13T23:23:05.953Z,100.00
2022-10-13T23:25:43.080Z,100.00
2022-10-13T23:28:16.776Z,100.00
2022-10-13T23:30:50.607Z,100.00
2022-10-13T23:33:27.326Z,100.00
2022-10-13T23:36:03.001Z,100.00
2022-10-13T23:38:37.117Z,100.00
2022-10-13T23:41:14.949Z,100.00
2022-10-13T23:43:48.976Z,100.00
2022-10-13T23:46:23.891Z,100.00
2022-10-13T23:48:57.496Z,100.00
2022-10-13T23:51:31.420Z,100.00
2022-10-13T23:54:06.095Z,100.00
2022-10-13T23:56:39.879Z,100.00
2022-10-13T23:59:13.434Z,100.00
